createdAt,value
2023-03-10T00:01:20.296Z,94898.00
2023-03-10T00:03:48.207Z,94911.00
2023-03-10T00:06:19.829Z,94894.00
2023-03-10T00:08:47.609Z,94896.00
2023-03-10T00:11:15.409Z,94877.00
2023-03-10T00:13:42.597Z,94883.00
2023-03-10T00:16:22.049Z,94883.00
2023-03-10T00:18:49.591Z,94888.00
2023-03-10T00:21:26.859Z,94868.00
2023-03-10T00:23:54.577Z,94864.00
2023-03-10T00:26:24.021Z,94872.00
2023-03-10T00:28:51.441Z,94869.00
2023-03-10T00:31:24.546Z,94864.00
2023-03-10T00:33:52.450Z,94839.00
2023-03-10T00:36:23.326Z,94851.00
2023-03-10T00:38:51.830Z,94848.00
2023-03-10T00:41:25.824Z,94841.00
2023-03-10T00:43:53.134Z,94836.00
2023-03-10T00:46:20.841Z,94841.00
2023-03-10T00:48:47.685Z,94845.00
2023-03-10T00:51:15.329Z,94834.00
2023-03-10T00:53:42.428Z,94832.00
2023-03-10T00:56:19.344Z,94834.00
2023-03-10T00:58:49.996Z,94818.00
2023-03-10T01:01:22.209Z,94829.00
2023-03-10T01:03:52.319Z,94814.00
2023-03-10T01:06:19.988Z,94818.00
2023-03-10T01:08:46.969Z,94812.00
2023-03-10T01:11:25.356Z,94801.00
2023-03-10T01:13:55.549Z,94786.00
2023-03-10T01:16:22.421Z,94802.00
2023-03-10T01:18:49.299Z,94792.00
2023-03-10T01:21:30.847Z,94784.00
2023-03-10T01:23:58.010Z,94783.00
2023-03-10T01:26:24.913Z,94786.00
2023-03-10T01:28:51.918Z,94788.00
2023-03-10T01:31:19.197Z,94773.00
2023-03-10T01:33:46.627Z,94786.00
2023-03-10T01:36:22.684Z,94779.00
2023-03-10T01:38:50.013Z,94777.00
2023-03-10T01:41:19.002Z,94785.00
2023-03-10T01:43:57.116Z,94761.00
2023-03-10T01:46:39.372Z,94773.00
2023-03-10T01:49:21.488Z,94768.00
2023-03-10T01:51:56.551Z,94767.00
2023-03-10T01:54:33.688Z,94774.00
2023-03-10T01:57:00.702Z,94756.00
2023-03-10T01:59:28.741Z,94768.00
2023-03-10T02:01:58.396Z,94767.00
2023-03-10T02:04:43.784Z,94783.00
2023-03-10T02:07:12.903Z,94776.00
2023-03-10T02:09:45.990Z,94779.00
2023-03-10T02:12:15.806Z,94753.00
2023-03-10T02:14:47.185Z,94761.00
2023-03-10T02:17:18.498Z,94772.00
2023-03-10T02:20:21.065Z,94764.00
2023-03-10T02:22:49.734Z,94759.00
2023-03-10T02:25:53.042Z,94768.00
2023-03-10T02:28:20.804Z,94763.00
2023-03-10T02:30:52.027Z,94747.00
2023-03-10T02:33:24.558Z,94757.00
2023-03-10T02:35:52.163Z,94745.00
2023-03-10T02:38:23.170Z,94742.00
2023-03-10T02:40:54.662Z,94747.00
2023-03-10T02:43:28.433Z,94757.00
2023-03-10T02:46:05.365Z,94745.00
2023-03-10T02:48:36.879Z,94762.00
2023-03-10T02:51:15.469Z,94746.00
2023-03-10T02:53:42.751Z,94758.00
2023-03-10T02:56:11.118Z,94754.00
2023-03-10T02:58:39.799Z,94761.00
2023-03-10T03:01:09.039Z,94759.00
2023-03-10T03:03:40.379Z,94754.00
2023-03-10T03:06:08.471Z,94761.00
2023-03-10T03:08:35.704Z,94762.00
2023-03-10T03:11:05.470Z,94760.00
2023-03-10T03:13:32.321Z,94762.00
2023-03-10T03:16:00.613Z,94769.00
2023-03-10T03:18:27.963Z,94771.00
2023-03-10T03:20:54.868Z,94771.00
2023-03-10T03:23:22.669Z,94765.00
2023-03-10T03:25:51.438Z,94763.00
2023-03-10T03:28:21.369Z,94764.00
2023-03-10T03:30:50.798Z,94757.00
2023-03-10T03:33:17.868Z,94764.00
2023-03-10T03:35:45.614Z,94748.00
2023-03-10T03:38:13.690Z,94768.00
2023-03-10T03:40:40.996Z,94771.00
2023-03-10T03:43:12.660Z,94773.00
2023-03-10T03:45:39.852Z,94766.00
2023-03-10T03:48:07.012Z,94755.00
2023-03-10T03:50:36.066Z,94759.00
2023-03-10T03:53:09.240Z,94764.00
2023-03-10T03:55:36.136Z,94751.00
2023-03-10T03:58:03.076Z,94748.00
2023-03-10T04:00:30.277Z,94758.00
2023-03-10T04:03:03.798Z,94749.00
2023-03-10T04:05:32.204Z,94740.00
2023-03-10T04:07:59.304Z,94751.00
2023-03-10T04:10:29.089Z,94737.00
2023-03-10T04:12:56.626Z,94739.00
2023-03-10T04:15:24.739Z,94756.00
2023-03-10T04:17:51.633Z,94742.00
2023-03-10T04:20:18.616Z,94731.00
2023-03-10T04:22:48.947Z,94748.00
2023-03-10T04:25:16.387Z,94741.00
2023-03-10T04:27:43.610Z,94763.00
2023-03-10T04:30:13.904Z,94749.00
2023-03-10T04:32:46.074Z,94752.00
2023-03-10T04:35:15.139Z,94748.00
2023-03-10T04:37:44.899Z,94753.00
2023-03-10T04:40:14.261Z,94751.00
2023-03-10T04:42:42.169Z,94753.00
2023-03-10T04:45:10.502Z,94751.00
2023-03-10T04:47:40.042Z,94757.00
2023-03-10T04:50:08.502Z,94747.00
2023-03-10T04:52:35.451Z,94738.00
2023-03-10T04:55:02.426Z,94748.00
2023-03-10T04:57:29.571Z,94744.00
2023-03-10T04:59:56.783Z,94747.00
2023-03-10T05:02:24.072Z,94746.00
2023-03-10T05:04:51.732Z,94752.00
2023-03-10T05:07:18.698Z,94737.00
2023-03-10T05:09:48.235Z,94743.00
2023-03-10T05:12:15.474Z,94739.00
2023-03-10T05:14:42.357Z,94741.00
2023-03-10T05:17:09.409Z,94737.00
2023-03-10T05:19:37.331Z,94737.00
2023-03-10T05:22:06.454Z,94753.00
2023-03-10T05:24:36.448Z,94734.00
2023-03-10T05:27:03.712Z,94732.00
2023-03-10T05:29:31.266Z,94725.00
2023-03-10T05:32:07.022Z,94735.00
2023-03-10T05:34:37.572Z,94731.00
2023-03-10T05:37:04.663Z,94744.00
2023-03-10T05:39:31.930Z,94740.00
2023-03-10T05:42:02.202Z,94731.00
2023-03-10T05:44:32.285Z,94724.00
2023-03-10T05:47:01.402Z,94725.00
2023-03-10T05:49:28.280Z,94713.00
2023-03-10T05:51:55.123Z,94721.00
2023-03-10T05:54:22.299Z,94705.00
2023-03-10T05:56:49.397Z,94703.00
2023-03-10T05:59:16.892Z,94712.00
2023-03-10T06:01:43.936Z,94709.00
2023-03-10T06:04:10.835Z,94707.00
2023-03-10T06:06:38.329Z,94706.00
2023-03-10T06:09:05.293Z,94705.00
2023-03-10T06:11:33.288Z,94709.00
2023-03-10T06:14:00.196Z,94714.00
2023-03-10T06:16:27.120Z,94708.00
2023-03-10T06:18:56.119Z,94710.00
2023-03-10T06:21:23.717Z,94701.00
2023-03-10T06:23:51.015Z,94721.00
2023-03-10T06:26:18.406Z,94705.00
2023-03-10T06:28:47.109Z,94708.00
2023-03-10T06:31:19.213Z,94717.00
2023-03-10T06:33:46.516Z,94709.00
2023-03-10T06:36:14.842Z,94709.00
2023-03-10T06:38:42.470Z,94725.00
2023-03-10T06:41:09.471Z,94715.00
2023-03-10T06:43:37.060Z,94722.00
2023-03-10T06:46:07.846Z,94719.00
2023-03-10T06:48:36.999Z,94711.00
2023-03-10T06:51:13.267Z,94737.00
2023-03-10T06:53:40.333Z,94743.00
2023-03-10T06:56:20.211Z,94732.00
2023-03-10T06:58:48.015Z,94732.00
2023-03-10T07:01:29.757Z,94731.00
2023-03-10T07:03:57.787Z,94741.00
2023-03-10T07:06:25.693Z,94726.00
2023-03-10T07:08:54.234Z,94720.00
2023-03-10T07:11:22.980Z,94731.00
2023-03-10T07:13:50.623Z,94712.00
2023-03-10T07:16:18.445Z,94730.00
2023-03-10T07:18:45.573Z,94735.00
2023-03-10T07:21:17.335Z,94723.00
2023-03-10T07:23:45.077Z,94739.00
2023-03-10T07:26:15.512Z,94735.00
2023-03-10T07:28:42.519Z,94749.00
2023-03-10T07:31:13.512Z,94741.00
2023-03-10T07:33:40.878Z,94738.00
2023-03-10T07:36:15.195Z,94741.00
2023-03-10T07:38:42.294Z,94746.00
2023-03-10T07:41:13.504Z,94741.00
2023-03-10T07:43:40.624Z,94735.00
2023-03-10T07:46:13.630Z,94747.00
2023-03-10T07:48:41.232Z,94754.00
2023-03-10T07:51:08.876Z,94754.00
2023-03-10T07:53:36.609Z,94748.00
2023-03-10T07:56:08.991Z,94749.00
2023-03-10T07:58:36.151Z,94752.00
2023-03-10T08:01:04.792Z,94747.00
2023-03-10T08:03:33.963Z,94732.00
2023-03-10T08:06:02.387Z,94727.00
2023-03-10T08:08:29.329Z,94733.00
2023-03-10T08:11:09.712Z,94737.00
2023-03-10T08:13:39.396Z,94738.00
2023-03-10T08:16:07.829Z,94739.00
2023-03-10T08:18:34.832Z,94732.00
2023-03-10T08:21:07.057Z,94734.00
2023-03-10T08:23:35.551Z,94737.00
2023-03-10T08:26:07.090Z,94752.00
2023-03-10T08:28:35.273Z,94755.00
2023-03-10T08:31:12.102Z,94758.00
2023-03-10T08:33:40.097Z,94754.00
2023-03-10T08:36:16.344Z,94745.00
2023-03-10T08:38:44.404Z,94756.00
2023-03-10T08:41:16.450Z,94769.00
2023-03-10T08:43:43.914Z,94770.00
2023-03-10T08:46:11.913Z,94747.00
2023-03-10T08:48:40.953Z,94760.00
2023-03-10T08:51:12.123Z,94744.00
2023-03-10T08:53:41.167Z,94755.00
2023-03-10T08:56:08.057Z,94752.00
2023-03-10T08:58:34.956Z,94756.00
2023-03-10T09:01:01.882Z,94771.00
2023-03-10T09:03:31.438Z,94759.00
2023-03-10T09:05:58.775Z,94763.00
2023-03-10T09:08:27.514Z,94766.00
2023-03-10T09:10:54.972Z,94770.00
2023-03-10T09:13:22.352Z,94766.00
2023-03-10T09:15:50.490Z,94781.00
2023-03-10T09:18:17.436Z,94764.00
2023-03-10T09:20:45.583Z,94757.00
2023-03-10T09:23:15.158Z,94772.00
2023-03-10T09:25:42.339Z,94767.00
2023-03-10T09:28:12.249Z,94762.00
2023-03-10T09:30:41.728Z,94764.00
2023-03-10T09:33:19.099Z,94767.00
2023-03-10T09:35:52.939Z,94775.00
2023-03-10T09:38:30.429Z,94764.00
2023-03-10T09:41:47.571Z,94763.00
2023-03-10T09:44:49.042Z,94758.00
2023-03-10T09:47:47.413Z,94772.00
2023-03-10T09:50:34.470Z,94766.00
2023-03-10T09:53:34.895Z,94782.00
2023-03-10T09:56:12.049Z,94778.00
2023-03-10T09:58:45.338Z,94762.00
2023-03-10T10:01:21.224Z,94776.00
2023-03-10T10:04:07.858Z,94759.00
2023-03-10T10:06:42.873Z,94773.00
2023-03-10T10:09:18.827Z,94759.00
2023-03-10T10:11:45.690Z,94759.00
2023-03-10T10:14:29.864Z,94760.00
2023-03-10T10:17:13.908Z,94774.00
2023-03-10T10:19:40.996Z,94770.00
2023-03-10T10:22:32.044Z,94767.00
2023-03-10T10:25:09.774Z,94777.00
2023-03-10T10:27:42.418Z,94769.00
2023-03-10T10:30:27.716Z,94753.00
2023-03-10T10:32:57.075Z,94765.00
2023-03-10T10:35:27.898Z,94766.00
2023-03-10T10:38:06.916Z,94775.00
2023-03-10T10:40:46.357Z,94768.00
2023-03-10T10:43:21.519Z,94770.00
2023-03-10T10:46:03.652Z,94773.00
2023-03-10T10:48:46.134Z,94767.00
2023-03-10T10:51:35.910Z,94769.00
2023-03-10T10:54:22.358Z,94764.00
2023-03-10T10:56:55.156Z,94763.00
2023-03-10T10:59:34.444Z,94781.00
2023-03-10T11:02:31.517Z,94765.00
2023-03-10T11:05:45.731Z,94766.00
2023-03-10T11:08:35.095Z,94767.00
2023-03-10T11:11:18.697Z,94762.00
2023-03-10T11:14:01.529Z,94756.00
2023-03-10T11:16:53.244Z,94756.00
2023-03-10T11:19:50.796Z,94758.00
2023-03-10T11:22:28.448Z,94767.00
2023-03-10T11:25:14.930Z,94757.00
2023-03-10T11:28:00.495Z,94751.00
2023-03-10T11:30:35.472Z,94753.00
2023-03-10T11:33:16.979Z,94753.00
2023-03-10T11:35:49.989Z,94748.00
2023-03-10T11:38:46.388Z,94752.00
2023-03-10T11:41:29.117Z,94748.00
2023-03-10T11:44:03.379Z,94743.00
2023-03-10T11:46:54.714Z,94742.00
2023-03-10T11:49:27.138Z,94743.00
2023-03-10T11:52:00.968Z,94744.00
2023-03-10T11:54:42.066Z,94733.00
2023-03-10T11:57:25.349Z,94737.00
2023-03-10T11:59:59.114Z,94744.00
2023-03-10T12:02:36.399Z,94741.00
2023-03-10T12:05:22.306Z,94741.00
2023-03-10T12:07:54.770Z,94729.00
2023-03-10T12:10:23.062Z,94735.00
2023-03-10T12:12:56.585Z,94730.00
2023-03-10T12:15:30.356Z,94723.00
2023-03-10T12:17:57.518Z,94720.00
2023-03-10T12:20:33.061Z,94729.00
2023-03-10T12:23:24.687Z,94727.00
2023-03-10T12:25:51.615Z,94725.00
2023-03-10T12:28:26.391Z,94728.00
2023-03-10T12:31:12.252Z,94737.00
2023-03-10T12:33:45.247Z,94737.00
2023-03-10T12:36:13.158Z,94740.00
2023-03-10T12:39:15.592Z,94738.00
2023-03-10T12:41:52.147Z,94734.00
2023-03-10T12:45:09.575Z,94728.00
2023-03-10T12:48:07.413Z,94722.00
2023-03-10T12:50:49.276Z,94720.00
2023-03-10T12:53:38.745Z,94721.00
2023-03-10T12:56:19.642Z,94735.00
2023-03-10T12:58:58.807Z,94733.00
2023-03-10T13:01:36.675Z,94716.00
2023-03-10T13:04:07.936Z,94730.00
2023-03-10T13:06:40.889Z,94723.00
2023-03-10T13:09:14.481Z,94715.00
2023-03-10T13:12:18.628Z,94724.00
2023-03-10T13:14:45.773Z,94709.00
2023-03-10T13:17:27.447Z,94713.00
2023-03-10T13:20:08.429Z,94699.00
2023-03-10T13:22:35.788Z,94688.00
2023-03-10T13:25:13.107Z,94713.00
2023-03-10T13:27:40.132Z,94707.00
2023-03-10T13:30:21.070Z,94693.00
2023-03-10T13:32:58.476Z,94697.00
2023-03-10T13:35:36.000Z,94689.00
2023-03-10T13:38:24.446Z,94681.00
2023-03-10T13:40:57.330Z,94690.00
2023-03-10T13:43:38.032Z,94674.00
2023-03-10T13:46:16.723Z,94690.00
2023-03-10T13:48:46.734Z,94689.00
2023-03-10T13:51:32.391Z,94677.00
2023-03-10T13:54:23.065Z,94683.00
2023-03-10T13:57:10.426Z,94675.00
2023-03-10T13:59:38.541Z,94683.00
2023-03-10T14:02:33.466Z,94669.00
2023-03-10T14:05:00.934Z,94661.00
2023-03-10T14:07:32.879Z,94677.00
2023-03-10T14:10:05.647Z,94680.00
2023-03-10T14:12:41.469Z,94682.00
2023-03-10T14:15:23.047Z,94681.00
2023-03-10T14:18:06.394Z,94685.00
2023-03-10T14:20:45.273Z,94689.00
2023-03-10T14:23:36.690Z,94693.00
2023-03-10T14:26:13.951Z,94684.00
2023-03-10T14:28:41.637Z,94674.00
2023-03-10T14:31:23.568Z,94673.00
2023-03-10T14:33:51.068Z,94675.00
2023-03-10T14:36:18.304Z,94677.00
2023-03-10T14:38:45.941Z,94678.00
2023-03-10T14:41:14.523Z,94685.00
2023-03-10T14:43:42.261Z,94671.00
2023-03-10T14:46:12.824Z,94677.00
2023-03-10T14:48:41.924Z,94684.00
2023-03-10T14:51:29.148Z,94668.00
2023-03-10T14:54:01.284Z,94676.00
2023-03-10T14:56:28.388Z,94709.00
2023-03-10T14:58:56.662Z,94713.00
2023-03-10T15:01:24.033Z,94710.00
2023-03-10T15:03:50.948Z,94719.00
2023-03-10T15:06:20.129Z,94720.00
2023-03-10T15:08:46.955Z,94728.00
2023-03-10T15:11:15.894Z,94713.00
2023-03-10T15:13:44.296Z,94724.00
2023-03-10T15:16:14.449Z,94708.00
2023-03-10T15:18:41.355Z,94740.00
2023-03-10T15:21:08.890Z,94734.00
2023-03-10T15:23:35.754Z,94744.00
2023-03-10T15:26:09.342Z,94750.00
2023-03-10T15:28:37.480Z,94763.00
2023-03-10T15:31:05.751Z,94769.00
2023-03-10T15:33:33.463Z,94771.00
2023-03-10T15:36:00.310Z,94774.00
2023-03-10T15:38:27.312Z,94765.00
2023-03-10T15:40:54.237Z,94786.00
2023-03-10T15:43:21.073Z,94782.00
2023-03-10T15:45:50.081Z,94761.00
2023-03-10T15:48:18.040Z,94772.00
2023-03-10T15:50:48.994Z,94773.00
2023-03-10T15:53:16.060Z,94761.00
2023-03-10T15:55:43.462Z,94773.00
2023-03-10T15:58:11.891Z,94768.00
2023-03-10T16:00:39.205Z,94767.00
2023-03-10T16:03:06.055Z,94775.00
2023-03-10T16:05:34.300Z,94783.00
2023-03-10T16:08:01.113Z,94784.00
2023-03-10T16:10:28.146Z,94802.00
2023-03-10T16:12:55.004Z,94781.00
2023-03-10T16:15:21.827Z,94782.00
2023-03-10T16:17:48.689Z,94778.00
2023-03-10T16:20:18.876Z,94769.00
2023-03-10T16:22:45.960Z,94812.00
2023-03-10T16:25:15.914Z,94806.00
2023-03-10T16:27:45.020Z,94805.00
2023-03-10T16:30:14.916Z,94791.00
2023-03-10T16:32:46.280Z,94802.00
2023-03-10T16:35:13.868Z,94824.00
2023-03-10T16:37:41.074Z,94804.00
2023-03-10T16:40:09.149Z,94831.00
2023-03-10T16:42:36.709Z,94813.00
2023-03-10T16:45:06.242Z,94809.00
2023-03-10T16:47:33.667Z,94818.00
2023-03-10T16:50:00.481Z,94817.00
2023-03-10T16:52:27.304Z,94843.00
2023-03-10T16:55:00.652Z,94833.00
2023-03-10T16:57:27.595Z,94832.00
2023-03-10T16:59:54.496Z,94837.00
2023-03-10T17:02:21.293Z,94844.00
2023-03-10T17:04:48.357Z,94835.00
2023-03-10T17:07:15.262Z,94835.00
2023-03-10T17:09:42.218Z,94852.00
2023-03-10T17:12:09.255Z,94851.00
2023-03-10T17:14:36.161Z,94876.00
2023-03-10T17:17:03.381Z,94883.00
2023-03-10T17:19:31.121Z,94882.00
2023-03-10T17:21:58.736Z,94888.00
2023-03-10T17:24:26.666Z,94873.00
2023-03-10T17:26:53.590Z,94883.00
2023-03-10T17:29:20.472Z,94893.00
2023-03-10T17:31:50.359Z,94932.00
2023-03-10T17:34:19.198Z,94941.00
2023-03-10T17:36:50.491Z,94959.00
2023-03-10T17:39:21.342Z,94972.00
2023-03-10T17:41:48.990Z,94990.00
2023-03-10T17:44:16.512Z,95012.00
2023-03-10T17:46:43.375Z,95031.00
2023-03-10T17:49:15.283Z,95052.00
2023-03-10T17:51:44.178Z,95075.00
2023-03-10T17:54:21.770Z,95092.00
2023-03-10T17:56:49.795Z,95102.00
2023-03-10T17:59:17.306Z,95098.00
2023-03-10T18:01:45.902Z,95085.00
2023-03-10T18:04:13.284Z,95110.00
2023-03-10T18:06:40.817Z,95137.00
2023-03-10T18:09:12.812Z,95144.00
2023-03-10T18:11:40.061Z,95171.00
2023-03-10T18:14:07.469Z,95174.00
2023-03-10T18:16:39.923Z,95176.00
2023-03-10T18:19:10.558Z,95211.00
2023-03-10T18:21:38.118Z,95244.00
2023-03-10T18:24:05.160Z,95239.00
2023-03-10T18:26:32.160Z,95258.00
2023-03-10T18:29:00.256Z,95268.00
2023-03-10T18:31:32.151Z,95285.00
2023-03-10T18:33:59.452Z,95293.00
2023-03-10T18:36:28.214Z,95316.00
2023-03-10T18:38:55.950Z,95332.00
2023-03-10T18:41:26.418Z,95348.00
2023-03-10T18:43:53.644Z,95357.00
2023-03-10T18:46:20.881Z,95366.00
2023-03-10T18:48:48.176Z,95391.00
2023-03-10T18:51:15.747Z,95401.00
2023-03-10T18:53:42.610Z,95413.00
2023-03-10T18:56:10.245Z,95438.00
2023-03-10T18:58:37.209Z,95452.00
2023-03-10T19:01:13.736Z,95463.00
2023-03-10T19:03:41.671Z,95478.00
2023-03-10T19:06:09.783Z,95491.00
2023-03-10T19:08:38.941Z,95489.00
2023-03-10T19:11:06.946Z,95500.00
2023-03-10T19:13:34.657Z,95520.00
2023-03-10T19:16:09.283Z,95527.00
2023-03-10T19:18:36.665Z,95544.00
2023-03-10T19:21:04.728Z,95547.00
2023-03-10T19:23:33.930Z,95550.00
2023-03-10T19:26:01.194Z,95567.00
2023-03-10T19:28:28.161Z,95583.00
2023-03-10T19:30:55.316Z,95597.00
2023-03-10T19:33:23.265Z,95604.00
2023-03-10T19:35:50.663Z,95623.00
2023-03-10T19:38:18.051Z,95623.00
2023-03-10T19:40:46.775Z,95636.00
2023-03-10T19:43:13.581Z,95634.00
2023-03-10T19:45:40.405Z,95647.00
2023-03-10T19:48:07.250Z,95660.00
2023-03-10T19:50:34.086Z,95657.00
2023-03-10T19:53:00.966Z,95668.00
2023-03-10T19:55:29.546Z,95707.00
2023-03-10T19:57:56.860Z,95690.00
2023-03-10T20:00:35.481Z,95722.00
2023-03-10T20:03:02.691Z,95735.00
2023-03-10T20:05:30.109Z,95743.00
2023-03-10T20:07:57.083Z,95744.00
2023-03-10T20:10:23.998Z,95739.00
2023-03-10T20:12:51.447Z,95765.00
2023-03-10T20:15:18.856Z,95778.00
2023-03-10T20:17:46.636Z,95767.00
2023-03-10T20:20:15.279Z,95778.00
2023-03-10T20:22:48.004Z,95786.00
2023-03-10T20:25:18.915Z,95802.00
2023-03-10T20:27:48.369Z,95782.00
2023-03-10T20:30:24.373Z,95823.00
2023-03-10T20:32:51.568Z,95814.00
2023-03-10T20:35:19.164Z,95840.00
2023-03-10T20:37:46.385Z,95833.00
2023-03-10T20:40:22.832Z,95840.00
2023-03-10T20:42:56.285Z,95842.00
2023-03-10T20:45:23.698Z,95850.00
2023-03-10T20:47:50.665Z,95850.00
2023-03-10T20:50:18.121Z,95864.00
2023-03-10T20:52:45.539Z,95867.00
2023-03-10T20:55:24.914Z,95876.00
2023-03-10T20:57:54.923Z,95874.00
2023-03-10T21:00:24.805Z,95902.00
2023-03-10T21:02:56.872Z,95880.00
2023-03-10T21:05:26.306Z,95879.00
2023-03-10T21:07:53.555Z,95891.00
2023-03-10T21:10:21.311Z,95898.00
2023-03-10T21:12:49.808Z,95911.00
2023-03-10T21:15:17.956Z,95917.00
2023-03-10T21:17:45.341Z,95913.00
2023-03-10T21:20:17.260Z,95936.00
2023-03-10T21:22:44.415Z,95934.00
2023-03-10T21:25:20.113Z,95945.00
2023-03-10T21:27:52.949Z,95940.00
2023-03-10T21:30:21.257Z,95942.00
2023-03-10T21:32:48.225Z,95943.00
2023-03-10T21:35:15.169Z,95947.00
2023-03-10T21:37:46.800Z,95961.00
2023-03-10T21:40:17.876Z,95954.00
2023-03-10T21:42:44.754Z,95954.00
2023-03-10T21:45:16.897Z,95960.00
2023-03-10T21:47:44.478Z,95958.00
2023-03-10T21:50:13.041Z,95972.00
2023-03-10T21:52:41.130Z,95981.00
2023-03-10T21:55:16.144Z,95977.00
2023-03-10T21:57:43.011Z,95981.00
2023-03-10T22:00:12.575Z,96004.00
2023-03-10T22:02:39.745Z,95997.00
2023-03-10T22:05:07.126Z,95999.00
2023-03-10T22:07:34.481Z,96008.00
2023-03-10T22:10:01.321Z,95996.00
2023-03-10T22:12:28.203Z,96009.00
2023-03-10T22:14:57.575Z,96024.00
2023-03-10T22:17:26.489Z,96026.00
2023-03-10T22:19:57.062Z,96045.00
2023-03-10T22:22:24.561Z,96033.00
2023-03-10T22:24:51.796Z,96018.00
2023-03-10T22:27:18.624Z,96029.00
2023-03-10T22:29:46.549Z,96036.00
2023-03-10T22:32:13.448Z,96050.00
2023-03-10T22:34:41.712Z,96053.00
2023-03-10T22:37:10.188Z,96079.00
2023-03-10T22:39:38.426Z,96077.00
2023-03-10T22:42:05.535Z,96080.00
2023-03-10T22:44:36.706Z,96075.00
2023-03-10T22:47:03.736Z,96084.00
2023-03-10T22:49:30.964Z,96098.00
2023-03-10T22:51:58.503Z,96103.00
2023-03-10T22:54:25.854Z,96109.00
2023-03-10T22:56:52.658Z,96101.00
2023-03-10T22:59:19.686Z,96124.00
2023-03-10T23:01:46.550Z,96123.00
2023-03-10T23:04:13.882Z,96126.00
2023-03-10T23:06:40.746Z,96126.00
2023-03-10T23:09:10.687Z,96131.00
2023-03-10T23:11:38.323Z,96130.00
2023-03-10T23:14:05.258Z,96144.00
2023-03-10T23:16:37.965Z,96131.00
2023-03-10T23:19:08.468Z,96164.00
2023-03-10T23:21:36.290Z,96160.00
2023-03-10T23:24:03.506Z,96147.00
2023-03-10T23:26:31.333Z,96147.00
2023-03-10T23:28:58.248Z,96152.00
2023-03-10T23:31:25.345Z,96167.00
2023-03-10T23:33:52.268Z,96161.00
2023-03-10T23:36:19.126Z,96157.00
2023-03-10T23:38:46.262Z,96172.00
2023-03-10T23:41:13.534Z,96164.00
2023-03-10T23:43:40.718Z,96151.00
2023-03-10T23:46:08.920Z,96176.00
2023-03-10T23:48:36.421Z,96177.00
2023-03-10T23:51:03.637Z,96183.00
2023-03-10T23:53:30.689Z,96192.00
2023-03-10T23:55:58.838Z,96195.00
2023-03-10T23:58:27.812Z,96200.00
